Time;durP1;ratioP1;P1;durP2;ratioP2;P2;SDS_P1;SDS_P2;PMS_P1;PMS_P2;Temp;Humidity;BMP_temperature;BMP_pressure;BME280_temperature;BME280_humidity;BME280_pressure;Samples;Min_cycle;Max_cycle;Signal;HPM_P1;HPM_P2
2022/01/03 00:02:37;;;;;;;90.45;43.00;;;;;;;6.53;100.00;99993.28;6357960;27;20043;-89
2022/01/03 00:09:36;;;;;;;66.53;28.05;;;;;;;6.33;100.00;99984.63;6374079;27;20403;-88
2022/01/03 00:12:38;;;;;;;66.13;29.77;;;;;;;6.30;100.00;99994.28;6374029;27;20081;-88
2022/01/03 00:15:38;;;;;;;57.03;24.92;;;;;;;6.31;100.00;99985.59;6374997;27;20279;-88
2022/01/03 00:18:40;;;;;;;67.13;24.17;;;;;;;6.20;100.00;99992.09;6341031;27;20047;-88
2022/01/03 00:21:45;;;;;;;60.10;24.77;;;;;;;6.19;100.00;99994.75;6372146;28;20043;-89
2022/01/03 00:24:58;;;;;;;51.72;24.88;;;;;;;6.28;100.00;100002.16;6372858;28;20040;-88
2022/01/03 00:28:36;;;;;;;53.85;25.25;;;;;;;6.38;100.00;100013.78;6373895;28;20047;-88
2022/01/03 00:31:39;;;;;;;54.03;25.10;;;;;;;6.23;100.00;100014.44;6300858;27;20059;-88
2022/01/03 00:34:40;;;;;;;50.35;24.30;;;;;;;6.19;100.00;99992.16;6378559;27;20130;-89
2022/01/03 00:37:44;;;;;;;52.05;25.73;;;;;;;6.13;100.00;99993.28;6358095;28;20074;-89
2022/01/03 00:40:45;;;;;;;53.20;27.33;;;;;;;6.23;100.00;100001.50;6373775;27;20092;-87
2022/01/03 00:43:46;;;;;;;51.55;23.67;;;;;;;6.21;100.00;99996.38;6379384;27;20070;-81
2022/01/03 00:46:47;;;;;;;56.33;25.67;;;;;;;6.18;100.00;100004.28;6342640;27;20051;-80
2022/01/03 00:49:49;;;;;;;59.83;26.50;;;;;;;6.11;100.00;100018.41;6359453;27;20063;-80
2022/01/03 00:52:51;;;;;;;49.30;23.35;;;;;;;6.02;100.00;100011.88;6359540;27;20050;-81
2022/01/03 00:56:08;;;;;;;52.45;25.73;;;;;;;6.04;100.00;99997.09;6376368;27;20043;-80
2022/01/03 00:59:11;;;;;;;51.25;26.55;;;;;;;5.99;100.00;99995.63;6377510;27;20118;-80
2022/01/03 01:02:14;;;;;;;53.78;25.52;;;;;;;5.98;100.00;99997.38;6376222;27;20051;-81
2022/01/03 01:05:15;;;;;;;54.13;28.20;;;;;;;5.89;100.00;99978.75;6377459;27;20070;-80
2022/01/03 01:08:23;;;;;;;55.95;27.52;;;;;;;5.98;100.00;99979.25;6342037;27;20103;-80
2022/01/03 01:11:29;;;;;;;48.05;24.10;;;;;;;5.91;100.00;99966.59;6377150;27;20038;-80
2022/01/03 01:14:30;;;;;;;49.78;27.90;;;;;;;5.94;100.00;99966.47;6376967;27;20051;-80
2022/01/03 01:17:31;;;;;;;49.72;27.58;;;;;;;5.96;100.00;99952.56;6375529;27;20058;-81
2022/01/03 01:20:35;;;;;;;52.83;29.10;;;;;;;5.93;100.00;99952.69;6358769;27;20035;-80
2022/01/03 01:23:40;;;;;;;60.80;29.67;;;;;;;5.89;100.00;99945.94;6375572;27;20038;-80
2022/01/03 01:30:03;;;;;;;59.97;28.50;;;;;;;5.96;100.00;99928.41;6376432;27;20039;-80
2022/01/03 01:33:15;;;;;;;54.80;29.23;;;;;;;5.90;100.00;99921.72;6376034;27;20057;-80
2022/01/03 01:36:16;;;;;;;58.43;29.07;;;;;;;5.85;100.00;99913.31;6375670;27;20047;-88
2022/01/03 01:39:17;;;;;;;50.70;27.52;;;;;;;5.82;100.00;99887.56;6358458;27;20055;-87
2022/01/03 01:42:20;;;;;;;59.15;28.73;;;;;;;5.76;100.00;99901.59;6375696;27;20043;-87
2022/01/03 01:45:25;;;;;;;57.10;28.15;;;;;;;5.85;100.00;99877.06;6375207;27;20376;-86
2022/01/03 01:48:27;;;;;;;61.83;31.10;;;;;;;5.71;100.00;99872.50;6352425;27;20040;-87
2022/01/03 01:51:34;;;;;;;62.58;29.95;;;;;;;5.75;100.00;99879.22;6349362;28;20040;-87
2022/01/03 01:54:38;;;;;;;64.68;29.77;;;;;;;5.79;100.00;99880.78;6348586;28;20518;-89
2022/01/03 01:57:47;;;;;;;53.67;28.75;;;;;;;5.76;100.00;99880.06;6349194;28;20046;-86
2022/01/03 02:00:57;;;;;;;55.67;29.70;;;;;;;5.78;100.00;99879.06;6350175;28;20043;-87
2022/01/03 02:04:05;;;;;;;46.88;26.35;;;;;;;5.67;100.00;99868.34;6350010;28;20040;-87
2022/01/03 02:07:09;;;;;;;55.65;28.13;;;;;;;5.61;100.00;99874.63;6349970;28;20423;-87
2022/01/03 02:10:15;;;;;;;57.90;29.92;;;;;;;5.43;100.00;99865.91;6350074;28;20059;-88
2022/01/03 02:13:22;;;;;;;50.90;28.15;;;;;;;5.40;100.00;99858.28;6349022;28;20095;-87
2022/01/03 02:16:24;;;;;;;49.83;27.23;;;;;;;5.44;100.00;99857.25;6332161;28;20066;-86
2022/01/03 02:19:24;;;;;;;52.65;28.20;;;;;;;5.36;100.00;99854.16;6349694;28;20036;-88
2022/01/03 02:22:25;;;;;;;55.08;28.60;;;;;;;5.33;100.00;99853.44;6348876;28;20040;-87
2022/01/03 02:25:26;;;;;;;56.42;27.30;;;;;;;5.38;100.00;99856.69;6348699;28;20052;-87
2022/01/03 02:28:27;;;;;;;45.28;25.23;;;;;;;5.38;100.00;99836.00;6349599;28;20048;-87
2022/01/03 02:31:28;;;;;;;51.90;27.38;;;;;;;5.33;100.00;99843.91;6334324;27;20470;-87
2022/01/03 02:34:29;;;;;;;53.33;29.23;;;;;;;5.30;100.00;99838.91;6374936;27;20046;-87
2022/01/03 02:37:30;;;;;;;53.45;27.98;;;;;;;5.18;100.00;99823.91;6355921;27;20070;-80
2022/01/03 02:40:31;;;;;;;58.07;30.90;;;;;;;5.31;100.00;99832.78;6355571;27;20051;-81
2022/01/03 02:43:32;;;;;;;52.10;29.55;;;;;;;5.29;100.00;99837.19;6355898;27;20296;-80
2022/01/03 02:46:33;;;;;;;55.58;28.55;;;;;;;5.32;100.00;99834.50;6374148;27;20047;-80
2022/01/03 02:49:34;;;;;;;57.83;29.45;;;;;;;5.29;100.00;99839.78;6355765;27;20372;-80
2022/01/03 02:52:35;;;;;;;58.22;29.83;;;;;;;5.27;100.00;99839.00;6372671;27;20046;-80
2022/01/03 02:55:36;;;;;;;48.60;26.77;;;;;;;5.10;100.00;99826.78;6373931;27;20046;-81
2022/01/03 02:58:37;;;;;;;62.92;31.38;;;;;;;5.11;100.00;99836.25;6355370;27;20039;-80
2022/01/03 03:01:44;;;;;;;59.97;31.55;;;;;;;5.10;100.00;99825.97;6336199;27;20043;-80
2022/01/03 03:04:59;;;;;;;54.97;30.83;;;;;;;5.18;100.00;99816.97;6330042;28;20372;-80
2022/01/03 03:08:00;;;;;;;52.45;29.52;;;;;;;5.18;100.00;99816.97;6348027;28;20403;-80
2022/01/03 03:11:01;;;;;;;56.28;31.02;;;;;;;4.96;100.00;99809.28;6329926;28;20039;-80
2022/01/03 03:14:02;;;;;;;53.80;28.75;;;;;;;4.98;100.00;99810.06;6346570;28;20044;-80
2022/01/03 03:17:03;;;;;;;61.35;31.20;;;;;;;5.00;100.00;99807.41;6347708;28;20046;-80
2022/01/03 03:20:10;;;;;;;58.88;31.10;;;;;;;5.05;100.00;99814.06;6346444;28;20111;-80
2022/01/03 03:23:12;;;;;;;61.20;30.65;;;;;;;5.10;100.00;99816.44;6347902;28;20048;-80
2022/01/03 03:26:13;;;;;;;55.03;28.17;;;;;;;4.98;100.00;99814.38;6329768;28;20047;-80
2022/01/03 03:29:15;;;;;;;52.47;28.83;;;;;;;5.05;100.00;99821.00;6329357;28;20168;-80
2022/01/03 03:32:19;;;;;;;53.35;30.17;;;;;;;4.99;100.00;99829.84;6329887;28;20120;-81
2022/01/03 03:35:21;;;;;;;52.95;28.35;;;;;;;5.00;100.00;99830.66;6330515;28;20420;-79
2022/01/03 03:38:25;;;;;;;53.87;29.17;;;;;;;4.79;100.00;99822.88;6347635;28;20043;-87
2022/01/03 03:41:26;;;;;;;49.72;25.88;;;;;;;4.81;100.00;99813.31;6346701;28;20043;-87
2022/01/03 03:44:27;;;;;;;54.08;28.20;;;;;;;4.78;100.00;99797.97;6329619;28;20036;-86
2022/01/03 03:47:28;;;;;;;48.60;28.23;;;;;;;4.75;100.00;99800.66;6329653;28;20040;-87
2022/01/03 03:50:29;;;;;;;44.22;24.50;;;;;;;4.75;100.00;99800.66;6329419;28;20044;-80
2022/01/03 03:53:30;;;;;;;56.28;28.92;;;;;;;4.77;100.00;99791.09;6347402;28;20039;-80
2022/01/03 03:56:31;;;;;;;49.20;27.77;;;;;;;4.75;100.00;99787.72;6347316;28;20499;-80
2022/01/03 03:59:31;;;;;;;55.65;32.15;;;;;;;4.81;100.00;99794.41;6329689;28;20036;-80
2022/01/03 04:02:32;;;;;;;63.13;33.90;;;;;;;4.80;100.00;99783.22;6346731;28;20039;-87
2022/01/03 04:05:33;;;;;;;59.10;33.33;;;;;;;4.82;100.00;99789.16;6329961;28;20115;-88
2022/01/03 04:08:34;;;;;;;62.80;33.58;;;;;;;4.68;100.00;99781.16;6346635;28;20051;-87
2022/01/03 04:11:35;;;;;;;57.38;29.67;;;;;;;4.71;100.00;99780.19;6329849;28;20042;-87
2022/01/03 04:14:35;;;;;;;51.10;26.73;;;;;;;4.56;100.00;99781.66;6346432;28;20587;-87
2022/01/03 04:17:36;;;;;;;49.78;26.15;;;;;;;4.62;100.00;99796.91;6345935;28;20039;-87
2022/01/03 04:20:37;;;;;;;55.80;26.55;;;;;;;4.55;100.00;99787.69;6346625;28;20108;-87
2022/01/03 04:23:38;;;;;;;56.80;30.73;;;;;;;4.50;100.00;99784.47;6346368;28;20043;-87
2022/01/03 04:26:40;;;;;;;53.95;29.77;;;;;;;4.54;100.00;99784.28;6346506;28;20042;-86
2022/01/03 04:29:41;;;;;;;58.00;30.48;;;;;;;4.54;100.00;99776.53;6347651;28;20042;-87
2022/01/03 04:32:42;;;;;;;59.38;32.85;;;;;;;4.58;100.00;99770.34;6313122;28;20419;-87
2022/01/03 04:35:43;;;;;;;58.78;31.67;;;;;;;4.65;100.00;99776.09;6329714;28;20471;-87
2022/01/03 04:38:44;;;;;;;65.40;33.08;;;;;;;4.73;100.00;99789.53;6329080;28;20048;-87
2022/01/03 04:41:44;;;;;;;60.67;35.40;;;;;;;4.66;100.00;99766.63;6347476;28;20050;-87
2022/01/03 04:44:45;;;;;;;70.03;34.78;;;;;;;4.65;100.00;99758.00;6346360;28;20036;-87
2022/01/03 04:47:46;;;;;;;63.85;32.50;;;;;;;4.60;100.00;99749.63;6295865;28;20047;-87
2022/01/03 04:50:47;;;;;;;57.60;26.67;;;;;;;4.44;100.00;99736.47;6347260;28;20066;-87
2022/01/03 04:53:47;;;;;;;59.97;28.40;;;;;;;4.45;100.00;99743.34;6312774;28;20380;-88
2022/01/03 04:56:48;;;;;;;70.05;34.20;;;;;;;4.57;100.00;99749.72;6329038;28;20134;-88
2022/01/03 04:59:49;;;;;;;71.63;33.45;;;;;;;4.54;100.00;99745.53;6346107;28;20111;-88
2022/01/03 05:02:50;;;;;;;64.82;34.15;;;;;;;4.62;100.00;99751.22;6329284;28;20040;-87
2022/01/03 05:05:51;;;;;;;61.45;31.25;;;;;;;4.56;100.00;99740.31;6346196;28;20042;-86
2022/01/03 05:08:52;;;;;;;66.70;33.50;;;;;;;4.47;100.00;99749.28;6346080;28;20478;-88
2022/01/03 05:11:53;;;;;;;69.55;34.00;;;;;;;4.55;100.00;99743.78;6329310;28;20047;-88
2022/01/03 05:14:53;;;;;;;63.83;33.10;;;;;;;4.55;100.00;99723.09;6345882;28;20130;-88
2022/01/03 05:17:54;;;;;;;70.43;34.95;;;;;;;4.61;100.00;99734.06;6347071;28;20491;-87
2022/01/03 05:20:56;;;;;;;75.70;34.05;;;;;;;4.61;100.00;99735.78;6345687;28;20039;-87
2022/01/03 05:23:58;;;;;;;77.72;35.30;;;;;;;4.60;100.00;99732.34;6345829;28;20456;-88
2022/01/03 05:26:59;;;;;;;67.93;35.03;;;;;;;4.64;100.00;99740.81;6329712;28;20039;-87
2022/01/03 05:29:59;;;;;;;63.08;34.28;;;;;;;4.68;100.00;99747.56;6349572;28;20121;-87
2022/01/03 05:33:00;;;;;;;63.67;34.60;;;;;;;4.72;100.00;99723.25;6333027;28;20407;-80
2022/01/03 05:36:01;;;;;;;64.78;35.05;;;;;;;4.72;100.00;99733.59;6349857;28;20039;-80
2022/01/03 05:39:02;;;;;;;69.57;35.20;;;;;;;4.68;100.00;99726.88;6349677;28;20138;-81
2022/01/03 05:42:03;;;;;;;59.33;31.38;;;;;;;4.67;100.00;99727.75;6332853;28;20036;-80
2022/01/03 05:45:05;;;;;;;56.63;31.40;;;;;;;4.84;100.00;99729.66;6349652;28;20039;-80
2022/01/03 05:48:06;;;;;;;59.35;32.03;;;;;;;4.87;100.00;99726.09;6347690;27;20042;-80
2022/01/03 05:51:07;;;;;;;64.65;34.25;;;;;;;4.87;100.00;99742.44;6357815;27;20608;-81
2022/01/03 05:54:08;;;;;;;56.67;32.15;;;;;;;4.83;100.00;99733.13;6357649;27;20142;-80
2022/01/03 05:57:09;;;;;;;56.83;31.77;;;;;;;4.76;100.00;99729.97;6376213;27;20399;-86
2022/01/03 06:00:14;;;;;;;61.53;31.90;;;;;;;4.87;100.00;99724.34;6376442;27;20372;-87
2022/01/03 06:03:19;;;;;;;64.50;31.80;;;;;;;4.93;100.00;99736.19;6374774;27;20042;-80
2022/01/03 06:06:31;;;;;;;59.25;30.95;;;;;;;4.83;100.00;99731.38;6374749;27;20039;-81
2022/01/03 06:09:32;;;;;;;50.47;26.85;;;;;;;4.84;100.00;99760.69;6359598;27;20046;-81
2022/01/03 06:12:33;;;;;;;49.35;28.40;;;;;;;4.91;100.00;99749.16;6375587;27;20039;-80
2022/01/03 06:15:39;;;;;;;50.88;29.90;;;;;;;4.88;100.00;99735.50;6374738;27;20126;-87
2022/01/03 06:18:43;;;;;;;50.25;27.90;;;;;;;4.75;100.00;99737.78;6374626;27;20103;-87
2022/01/03 06:21:45;;;;;;;53.65;29.70;;;;;;;4.76;100.00;99736.91;6379300;27;20139;-87
2022/01/03 06:24:47;;;;;;;49.67;28.23;;;;;;;4.77;100.00;99746.31;6374790;27;20043;-87
2022/01/03 06:27:48;;;;;;;46.65;26.58;;;;;;;4.83;100.00;99758.97;6374597;27;20124;-87
2022/01/03 06:30:48;;;;;;;47.67;26.35;;;;;;;4.72;100.00;99749.09;6357020;27;20059;-87
2022/01/03 06:33:49;;;;;;;48.30;26.60;;;;;;;4.88;100.00;99744.13;6357214;27;20043;-87
2022/01/03 06:36:50;;;;;;;47.80;26.23;;;;;;;4.93;100.00;99751.69;6374303;27;20042;-87
2022/01/03 06:39:51;;;;;;;43.72;24.92;;;;;;;4.70;100.00;99742.31;6356372;27;20099;-87
2022/01/03 06:42:52;;;;;;;43.00;24.75;;;;;;;4.85;100.00;99746.84;6357260;27;20043;-86
2022/01/03 06:45:53;;;;;;;42.65;25.15;;;;;;;4.79;100.00;99753.09;6374451;27;20084;-87
2022/01/03 06:48:54;;;;;;;40.90;23.58;;;;;;;4.83;100.00;99756.41;6340250;27;20044;-87
2022/01/03 06:51:55;;;;;;;40.63;23.02;;;;;;;4.76;100.00;99755.81;6375748;27;20453;-86
2022/01/03 06:54:56;;;;;;;38.42;23.33;;;;;;;4.87;100.00;99773.47;6373698;27;20060;-86
2022/01/03 06:57:56;;;;;;;42.28;22.85;;;;;;;4.93;100.00;99751.69;6339777;27;20072;-86
2022/01/03 07:00:57;;;;;;;38.38;22.00;;;;;;;4.89;100.00;99750.97;6356901;27;20506;-86
2022/01/03 07:03:58;;;;;;;37.40;22.08;;;;;;;4.91;100.00;99750.91;6376764;27;20043;-86
2022/01/03 07:06:59;;;;;;;39.33;21.75;;;;;;;4.96;100.00;99743.78;6389458;27;20134;-86
2022/01/03 07:10:00;;;;;;;41.08;23.45;;;;;;;4.96;100.00;99741.19;6368096;27;20040;-86
2022/01/03 07:13:01;;;;;;;38.15;21.88;;;;;;;5.03;100.00;99756.41;6339201;27;20054;-87
2022/01/03 07:19:21;;;;;;;37.55;21.60;;;;;;;5.07;100.00;99769.22;6365756;27;20067;-86
2022/01/03 07:22:23;;;;;;;38.60;20.55;;;;;;;5.07;100.00;99761.44;6340403;27;20045;-87
2022/01/03 07:25:24;;;;;;;36.92;21.55;;;;;;;5.01;100.00;99762.53;6348303;28;20067;-87
2022/01/03 07:28:25;;;;;;;39.08;19.73;;;;;;;4.88;100.00;99759.66;6345461;28;20043;-87
2022/01/03 07:31:26;;;;;;;36.35;20.27;;;;;;;4.99;100.00;99766.94;6345415;28;20040;-87
2022/01/03 07:34:27;;;;;;;37.28;20.05;;;;;;;5.03;100.00;99761.56;6328996;28;20100;-80
2022/01/03 07:37:28;;;;;;;30.42;19.33;;;;;;;4.99;100.00;99756.59;6329066;28;20044;-80
2022/01/03 07:40:29;;;;;;;29.30;18.27;;;;;;;5.03;100.00;99758.97;6328451;28;20104;-80
2022/01/03 07:43:31;;;;;;;28.27;17.10;;;;;;;5.03;100.00;99740.88;6344679;28;20502;-86
2022/01/03 07:46:31;;;;;;;33.50;19.85;;;;;;;5.08;100.00;99750.19;6327269;28;20044;-87
2022/01/03 07:49:32;;;;;;;37.33;20.05;;;;;;;5.10;100.00;99767.31;6311593;28;20092;-87
2022/01/03 07:52:33;;;;;;;33.78;19.80;;;;;;;5.05;100.00;99764.94;6311376;28;20039;-86
2022/01/03 07:55:34;;;;;;;39.20;19.45;;;;;;;5.18;100.00;99772.16;6329263;28;20448;-87
2022/01/03 07:58:36;;;;;;;32.15;18.88;;;;;;;5.14;100.00;99776.63;6328817;28;20031;-86
2022/01/03 08:01:40;;;;;;;33.47;20.67;;;;;;;5.15;100.00;99783.50;6345688;28;20376;-86
2022/01/03 08:04:41;;;;;;;33.08;20.20;;;;;;;5.27;100.00;99768.31;6345965;28;20050;-86
2022/01/03 08:07:45;;;;;;;34.10;19.58;;;;;;;5.33;100.00;99761.13;6355616;27;20043;-87
2022/01/03 08:10:46;;;;;;;34.15;20.38;;;;;;;5.39;100.00;99758.28;6346614;28;20042;-87
2022/01/03 08:13:47;;;;;;;30.38;19.30;;;;;;;5.42;100.00;99744.38;6346965;28;20428;-87
2022/01/03 08:16:48;;;;;;;32.42;20.05;;;;;;;5.48;100.00;99728.59;6346547;28;20042;-87
2022/01/03 08:19:48;;;;;;;33.20;19.00;;;;;;;5.51;100.00;99730.19;6329604;28;20127;-87
2022/01/03 08:22:49;;;;;;;32.20;18.40;;;;;;;5.64;100.00;99734.75;6329897;28;20044;-86
2022/01/03 08:25:50;;;;;;;29.88;18.88;;;;;;;5.58;100.00;99716.91;6346665;28;20484;-86
2022/01/03 08:28:51;;;;;;;31.48;18.10;;;;;;;5.64;100.00;99700.22;6329828;28;20047;-86
2022/01/03 08:31:52;;;;;;;32.45;19.25;;;;;;;5.62;100.00;99715.00;6346423;28;20409;-86
2022/01/03 08:34:53;;;;;;;33.85;19.60;;;;;;;5.70;100.00;99719.81;6329326;28;20083;-86
2022/01/03 08:37:54;;;;;;;34.03;19.65;;;;;;;5.56;100.00;99708.38;6329549;28;20493;-86
2022/01/03 08:40:55;;;;;;;31.92;19.17;;;;;;;5.47;100.00;99705.34;6345826;28;20042;-86
2022/01/03 08:43:56;;;;;;;32.67;18.83;;;;;;;5.58;100.00;99734.16;6346540;28;20399;-86
2022/01/03 08:46:56;;;;;;;34.10;18.30;;;;;;;5.55;100.00;99729.97;6346241;28;20130;-85
2022/01/03 08:49:57;;;;;;;32.60;19.90;;;;;;;5.52;100.00;99721.50;6329343;28;20048;-86
2022/01/03 08:52:58;;;;;;;37.50;20.90;;;;;;;5.60;100.00;99722.00;6312810;28;20046;-86
2022/01/03 08:55:59;;;;;;;32.58;19.50;;;;;;;5.51;100.00;99723.25;6380892;27;20044;-86
2022/01/03 08:59:02;;;;;;;32.47;18.73;;;;;;;5.43;100.00;99705.47;6347201;28;20047;-86
2022/01/03 09:02:03;;;;;;;35.53;18.67;;;;;;;5.42;100.00;99702.97;6313807;28;20118;-87
2022/01/03 09:05:04;;;;;;;36.63;19.92;;;;;;;5.34;100.00;99711.09;6349454;28;20040;-86
2022/01/03 09:08:06;;;;;;;31.30;19.73;;;;;;;5.44;100.00;99716.69;6350715;28;20380;-86
2022/01/03 09:11:07;;;;;;;37.85;19.55;;;;;;;5.40;100.00;99717.75;6333478;28;20280;-87
2022/01/03 09:14:07;;;;;;;33.28;20.27;;;;;;;5.42;100.00;99714.16;6351329;28;20351;-86
2022/01/03 09:17:08;;;;;;;38.25;21.83;;;;;;;5.49;100.00;99708.72;6333015;28;20043;-87
2022/01/03 09:20:10;;;;;;;34.00;20.10;;;;;;;5.52;100.00;99700.78;6345983;27;20043;-86
2022/01/03 09:23:34;;;;;;;47.28;26.27;;;;;;;5.52;100.00;99698.22;6373914;27;20458;-87
2022/01/03 09:29:54;;;;;;;30.40;18.95;;;;;;;5.60;100.00;99699.56;6375991;27;20047;-85
2022/01/03 09:32:56;;;;;;;29.88;19.60;;;;;;;5.56;100.00;99705.78;6374684;27;20070;-86
2022/01/03 09:35:56;;;;;;;32.90;20.80;;;;;;;5.71;100.00;99709.41;6324228;27;20147;-86
2022/01/03 09:38:58;;;;;;;32.72;18.88;;;;;;;5.54;100.00;99698.97;6374566;27;20057;-86
2022/01/03 09:42:07;;;;;;;39.80;23.80;;;;;;;5.71;100.00;99703.41;6357768;27;20039;-86
2022/01/03 09:45:11;;;;;;;31.50;17.63;;;;;;;5.67;100.00;99701.88;6374138;27;20051;-87
2022/01/03 09:48:14;;;;;;;35.55;19.30;;;;;;;5.79;100.00;99685.75;6373486;27;20126;-81
2022/01/03 09:51:15;;;;;;;29.25;17.73;;;;;;;5.78;100.00;99702.19;6338272;27;20119;-81
2022/01/03 09:54:15;;;;;;;32.05;18.17;;;;;;;5.85;100.00;99690.66;6356566;27;20108;-80
2022/01/03 09:57:19;;;;;;;30.38;17.95;;;;;;;5.82;100.00;99699.38;6373849;27;20043;-81
2022/01/03 10:00:24;;;;;;;28.52;18.77;;;;;;;5.84;100.00;99686.34;6373961;27;20399;-81
2022/01/03 10:03:25;;;;;;;29.67;17.60;;;;;;;5.87;100.00;99681.06;6373924;27;20051;-81
2022/01/03 10:06:27;;;;;;;27.38;17.30;;;;;;;5.81;100.00;99681.34;6374661;27;20075;-81
2022/01/03 10:09:28;;;;;;;27.63;16.65;;;;;;;5.81;100.00;99658.03;6375798;27;20043;-81
2022/01/03 10:12:29;;;;;;;32.53;20.23;;;;;;;5.86;100.00;99648.28;6357391;27;20069;-81
2022/01/03 10:15:30;;;;;;;30.33;18.15;;;;;;;5.89;100.00;99650.75;6355933;27;20039;-82
2022/01/03 10:18:31;;;;;;;30.38;17.17;;;;;;;5.96;100.00;99670.28;6373275;27;20111;-82
2022/01/03 10:21:41;;;;;;;34.85;16.30;;;;;;;6.00;100.00;99643.31;6357195;27;20510;-86
2022/01/03 10:24:42;;;;;;;23.77;16.45;;;;;;;5.99;100.00;99625.25;6372037;27;20169;-87
2022/01/03 10:27:49;;;;;;;27.08;17.00;;;;;;;6.03;100.00;99625.06;6356079;27;20115;-87
2022/01/03 10:30:50;;;;;;;28.45;17.05;;;;;;;5.98;100.00;99601.13;6372853;27;20038;-86
2022/01/03 10:34:06;;;;;;;28.25;16.50;;;;;;;6.05;100.00;99615.44;6356874;27;20043;-87
2022/01/03 10:37:11;;;;;;;35.22;18.77;;;;;;;6.13;100.00;99622.81;6374168;27;20121;-87
2022/01/03 10:40:28;;;;;;;32.75;20.80;;;;;;;6.04;100.00;99611.16;6375070;27;20045;-87
2022/01/03 10:43:28;;;;;;;26.08;15.35;;;;;;;6.18;100.00;99622.63;6374764;27;20043;-87
2022/01/03 10:46:33;;;;;;;26.02;14.63;;;;;;;6.31;100.00;99605.53;6339764;27;20126;-87
2022/01/03 10:49:35;;;;;;;22.38;14.18;;;;;;;6.34;100.00;99602.78;6374671;27;20046;-87
2022/01/03 10:52:39;;;;;;;25.52;13.25;;;;;;;6.41;100.00;99580.00;6356531;27;20163;-87
2022/01/03 10:55:40;;;;;;;20.55;13.40;;;;;;;6.50;100.00;99581.25;6373479;27;20089;-87
2022/01/03 10:58:41;;;;;;;19.83;12.30;;;;;;;6.55;100.00;99576.69;6337520;27;20410;-82
2022/01/03 11:01:44;;;;;;;25.33;13.27;;;;;;;6.63;100.00;99587.47;6355252;27;20071;-82
2022/01/03 11:04:52;;;;;;;20.45;12.00;;;;;;;6.63;100.00;99565.00;6368723;27;20123;-82
2022/01/03 11:11:05;;;;;;;34.83;18.27;;;;;;;6.74;100.00;99561.84;6373937;27;20047;-82
2022/01/03 11:14:07;;;;;;;33.13;16.20;;;;;;;6.76;100.00;99567.78;6372543;27;20051;-82
2022/01/03 11:17:23;;;;;;;22.08;13.05;;;;;;;6.73;100.00;99573.13;6369753;27;20448;-82
2022/01/03 11:20:24;;;;;;;27.27;16.33;;;;;;;6.57;100.00;99557.53;6371010;27;20042;-81
2022/01/03 11:23:25;;;;;;;28.75;17.85;;;;;;;6.49;100.00;99554.53;6337211;27;20055;-81
2022/01/03 11:26:30;;;;;;;25.85;15.75;;;;;;;6.45;100.00;99550.41;6373129;27;20552;-88
2022/01/03 11:29:31;;;;;;;28.48;16.15;;;;;;;6.51;100.00;99554.44;6374596;27;20043;-87
2022/01/03 11:32:34;;;;;;;26.55;15.25;;;;;;;6.53;100.00;99548.25;6373940;27;20043;-87
2022/01/03 11:35:36;;;;;;;69.00;30.77;;;;;;;6.61;100.00;99540.06;6373832;27;20067;-87
2022/01/03 11:38:39;;;;;;;32.15;17.45;;;;;;;6.67;100.00;99529.34;6338938;27;20043;-87
2022/01/03 11:41:43;;;;;;;26.30;16.08;;;;;;;6.62;100.00;99521.00;6373051;27;20474;-87
2022/01/03 11:44:44;;;;;;;43.83;22.15;;;;;;;6.78;100.00;99528.81;6355754;27;20043;-88
2022/01/03 11:47:45;;;;;;;23.50;14.73;;;;;;;6.85;100.00;99535.31;6373037;27;20043;-87
2022/01/03 11:50:50;;;;;;;22.98;14.38;;;;;;;6.94;100.00;99541.78;6374006;27;20066;-87
2022/01/03 11:53:52;;;;;;;24.48;13.48;;;;;;;6.94;100.00;99508.91;6373253;27;20084;-87
2022/01/03 12:04:35;;;;;;;6.47;3.13;;;;;;;7.13;100.00;99518.28;6330478;27;20463;-88
2022/01/03 12:07:54;;;;;;;6.22;3.05;;;;;;;7.42;100.00;99517.47;6372550;27;20054;-88
2022/01/03 12:11:00;;;;;;;6.82;2.60;;;;;;;7.52;100.00;99499.63;6372254;27;20051;-89
2022/01/03 12:14:03;;;;;;;5.68;2.22;;;;;;;7.73;100.00;99488.94;6372264;27;20039;-88
2022/01/03 12:17:07;;;;;;;4.20;1.92;;;;;;;7.79;100.00;99511.94;6371726;27;20039;-90
2022/01/03 12:20:09;;;;;;;5.18;1.80;;;;;;;7.90;100.00;99513.91;6373287;27;20046;-88
2022/01/03 12:23:38;;;;;;;5.40;2.33;;;;;;;7.92;100.00;99520.69;6355195;27;20043;-89
2022/01/03 12:27:01;;;;;;;4.15;1.80;;;;;;;7.99;100.00;99519.41;6372600;27;20039;-89
2022/01/03 12:30:02;;;;;;;;;;;;;;;8.08;100.00;99531.00;6372460;28;20047;-88
2022/01/03 12:33:07;;;;;;;3.53;1.55;;;;;;;8.01;100.00;99545.28;6372417;28;19919;-89
2022/01/03 12:36:17;;;;;;;1.98;1.20;;;;;;;7.96;100.00;99544.72;6372995;27;20042;-89
2022/01/03 12:39:18;;;;;;;1.90;1.23;;;;;;;8.00;100.00;99541.84;6376830;27;20050;-89
2022/01/03 12:42:58;;;;;;;3.55;1.67;;;;;;;8.05;100.00;99529.44;6377013;27;20070;-88
2022/01/03 12:46:00;;;;;;;6.60;1.83;;;;;;;8.05;100.00;99542.44;6377220;27;20069;-90
2022/01/03 12:49:24;;;;;;;2.25;1.40;;;;;;;8.03;100.00;99536.50;6374887;27;20100;-82
2022/01/03 12:52:40;;;;;;;4.07;2.42;;;;;;;7.97;100.00;99533.38;6375129;27;20035;-83
2022/01/03 12:55:41;;;;;;;10.73;3.00;;;;;;;8.05;100.00;99546.75;6374063;27;20035;-82
2022/01/03 12:58:45;;;;;;;8.13;2.95;;;;;;;8.07;100.00;99545.78;6376092;27;20041;-82
2022/01/03 13:01:46;;;;;;;5.30;2.42;;;;;;;8.03;100.00;99540.81;6358441;27;20051;-82
2022/01/03 13:04:47;;;;;;;2.50;1.30;;;;;;;8.07;100.00;99552.72;6340941;27;20162;-82
2022/01/03 13:07:47;;;;;;;2.25;1.10;;;;;;;8.05;100.00;99550.22;6356594;27;20050;-81
2022/01/03 13:11:01;;;;;;;3.40;1.27;;;;;;;8.10;100.00;99543.94;6341837;27;20031;-89
2022/01/03 13:14:09;;;;;;;7.03;1.00;;;;;;;8.16;100.00;99543.56;6372184;27;20447;-83
2022/01/03 13:17:11;;;;;;;2.33;1.35;;;;;;;8.25;100.00;99543.00;6365887;27;20043;-82
2022/01/03 13:20:12;;;;;;;2.00;1.10;;;;;;;8.25;100.00;99556.00;6373780;27;20050;-82
2022/01/03 13:23:18;;;;;;;2.20;1.00;;;;;;;8.31;100.00;99557.41;6357164;27;20497;-82
2022/01/03 13:26:20;;;;;;;2.92;1.45;;;;;;;8.28;100.00;99553.22;6375522;27;20046;-82
2022/01/03 13:29:22;;;;;;;4.38;1.95;;;;;;;8.25;100.00;99554.22;6374829;27;20053;-90
2022/01/03 13:32:24;;;;;;;;;;;;;;;8.16;100.00;99554.78;6376379;27;20031;-90
2022/01/03 13:35:25;;;;;;;11.07;2.78;;;;;;;8.18;100.00;99552.94;6376188;27;19971;-89
2022/01/03 13:38:28;;;;;;;9.55;2.90;;;;;;;8.03;100.00;99557.28;6359251;27;20047;-91
2022/01/03 13:41:33;;;;;;;;;;;;;;;8.02;100.00;99563.38;6376682;27;20371;-90
2022/01/03 13:51:19;;;;;;;3.00;1.73;;;;;;;8.03;100.00;99570.25;6377071;27;20043;-89
2022/01/03 13:54:31;;;;;;;;;;;;;;;8.04;100.00;99579.72;6359767;27;20292;-90
2022/01/03 13:57:35;;;;;;;5.60;2.63;;;;;;;7.99;100.00;99586.09;6376261;27;20367;-90
2022/01/03 14:00:43;;;;;;;5.65;2.58;;;;;;;8.01;100.00;99579.06;6375860;27;20418;-90
2022/01/03 14:03:45;;;;;;;3.65;2.20;;;;;;;8.00;100.00;99580.00;6375539;27;20043;-90
2022/01/03 14:06:47;;;;;;;4.38;2.60;;;;;;;7.99;100.00;99593.88;6376671;27;20066;-89
2022/01/03 14:09:59;;;;;;;4.50;2.58;;;;;;;7.92;100.00;99574.41;6375882;27;20043;-90
2022/01/03 14:13:04;;;;;;;4.97;2.45;;;;;;;7.94;100.00;99588.97;6375780;27;20104;-90
2022/01/03 14:16:10;;;;;;;6.70;3.00;;;;;;;7.95;100.00;99592.41;6375628;27;20066;-90
2022/01/03 14:19:11;;;;;;;5.75;2.83;;;;;;;7.91;100.00;99585.69;6375207;27;20067;-91
2022/01/03 14:22:18;;;;;;;7.07;2.70;;;;;;;7.88;100.00;99600.53;6341094;27;20423;-91
2022/01/03 14:25:25;;;;;;;7.32;2.95;;;;;;;7.84;100.00;99604.25;6375315;27;20043;-89
2022/01/03 14:28:27;;;;;;;6.45;2.38;;;;;;;7.78;100.00;99602.00;6375391;27;20043;-92
2022/01/03 14:31:54;;;;;;;6.88;2.78;;;;;;;7.84;100.00;99600.81;6374718;27;20088;-83
2022/01/03 14:34:54;;;;;;;7.07;3.20;;;;;;;7.71;100.00;99595.47;6374260;27;20509;-82
2022/01/03 14:38:03;;;;;;;5.95;2.95;;;;;;;7.66;100.00;99595.75;6356065;27;20073;-82
2022/01/03 14:41:04;;;;;;;8.05;3.30;;;;;;;7.67;100.00;99602.59;6374239;27;20075;-83